Time;durP1;ratioP1;P1;durP2;ratioP2;P2;SDS_P1;SDS_P2;PMS_P1;PMS_P2;Temp;Humidity;BMP_temperature;BMP_pressure;BME280_temperature;BME280_humidity;BME280_pressure;Samples;Min_cycle;Max_cycle;Signal;HPM_P1;HPM_P2
2022/09/22 00:00:42;;;;;;;15.00;6.97;;;5.30;88.10;;;;;;5013867;28;20520;-63
2022/09/22 00:03:09;;;;;;;31.27;8.77;;;7.60;90.40;;;;;;5013920;28;20565;-62
2022/09/22 00:05:36;;;;;;;14.27;5.87;;;7.60;90.50;;;;;;5015035;28;20801;-63
2022/09/22 00:08:03;;;;;;;16.63;7.90;;;7.60;90.30;;;;;;5012955;28;20496;-62
2022/09/22 00:10:29;;;;;;;24.40;8.00;;;7.70;90.40;;;;;;5017395;28;20488;-62
2022/09/22 00:12:56;;;;;;;17.33;7.10;;;7.70;90.40;;;;;;5012598;28;20533;-62
2022/09/22 00:15:23;;;;;;;13.73;6.90;;;7.60;90.20;;;;;;5013291;28;20847;-63
2022/09/22 00:17:51;;;;;;;16.60;7.63;;;7.40;89.80;;;;;;5010525;28;20515;-62
2022/09/22 00:20:18;;;;;;;20.97;9.90;;;;;;;;;;5012493;28;20829;-63
2022/09/22 00:22:48;;;;;;;14.33;7.53;;;7.40;90.00;;;;;;5014021;28;20493;-62
2022/09/22 00:25:16;;;;;;;34.10;7.93;;;;;;;;;;5014228;28;20530;-62
2022/09/22 00:27:43;;;;;;;17.90;8.87;;;7.30;89.70;;;;;;5012593;28;20514;-62
2022/09/22 00:30:11;;;;;;;21.67;9.00;;;7.30;90.00;;;;;;5005905;28;20492;-62
2022/09/22 00:32:38;;;;;;;20.57;6.13;;;7.30;90.10;;;;;;5023885;28;20500;-62
2022/09/22 00:35:08;;;;;;;18.70;8.87;;;7.30;90.10;;;;;;5012099;28;20489;-62
2022/09/22 00:37:34;;;;;;;30.90;10.00;;;7.30;90.10;;;;;;5008928;28;20618;-62
2022/09/22 00:40:01;;;;;;;25.27;5.50;;;7.30;90.10;;;;;;5012325;28;20511;-62
2022/09/22 00:42:28;;;;;;;21.77;7.03;;;7.20;90.00;;;;;;5010691;28;21113;-62
2022/09/22 00:44:55;;;;;;;15.03;6.20;;;;;;;;;;5012914;28;20485;-63
2022/09/22 00:47:29;;;;;;;19.27;6.67;;;7.20;90.40;;;;;;5011634;28;20535;-61
2022/09/22 00:50:03;;;;;;;13.60;6.27;;;7.20;90.40;;;;;;5006486;28;20960;-62
2022/09/22 00:52:35;;;;;;;19.20;5.83;;;7.20;90.30;;;;;;5013014;28;20814;-61
2022/09/22 00:55:06;;;;;;;10.73;4.80;;;7.20;89.80;;;;;;5002220;28;20616;-62
2022/09/22 00:57:35;;;;;;;23.27;7.50;;;;;;;;;;5002284;28;20476;-62
2022/09/22 01:00:06;;;;;;;19.87;5.90;;;6.60;89.20;;;;;;4992404;28;20565;-62
2022/09/22 01:02:32;;;;;;;14.10;6.73;;;7.10;89.30;;;;;;5012432;28;20476;-62
2022/09/22 01:04:59;;;;;;;11.93;5.57;;;;;;;;;;5011034;28;20472;-62
2022/09/22 01:07:29;;;;;;;12.63;6.83;;;7.00;89.10;;;;;;5017489;28;20488;-62
2022/09/22 01:09:58;;;;;;;17.03;7.70;;;;;;;;;;5003925;28;21088;-62
2022/09/22 01:12:27;;;;;;;16.33;6.00;;;6.90;89.50;;;;;;5027798;28;20576;-62
2022/09/22 01:15:09;;;;;;;15.70;7.77;;;7.00;89.90;;;;;;5013403;28;20836;-61
2022/09/22 01:17:45;;;;;;;20.83;8.57;;;6.90;90.00;;;;;;5016305;28;20485;-62
2022/09/22 01:20:53;;;;;;;27.97;11.10;;;6.90;90.00;;;;;;5013837;28;20484;-62
2022/09/22 01:23:38;;;;;;;17.43;6.97;;;;;;;;;;5014420;28;20472;-63
2022/09/22 01:26:26;;;;;;;14.80;5.77;;;6.70;89.70;;;;;;4985529;28;20750;-62
2022/09/22 01:29:19;;;;;;;18.63;7.70;;;6.70;89.80;;;;;;5010873;28;21048;-62
2022/09/22 01:31:54;;;;;;;14.47;6.93;;;6.60;90.20;;;;;;5014519;28;20972;-64
2022/09/22 01:34:30;;;;;;;19.97;8.80;;;6.50;90.60;;;;;;5015078;28;20828;-62
2022/09/22 01:37:02;;;;;;;15.00;6.53;;;;;;;;;;5010864;28;20481;-62
2022/09/22 01:39:34;;;;;;;17.13;6.90;;;6.60;90.70;;;;;;5014659;28;20978;-63
2022/09/22 01:42:06;;;;;;;16.40;5.30;;;6.50;90.30;;;;;;5013291;28;20560;-63
2022/09/22 01:44:35;;;;;;;17.13;7.50;;;6.40;90.10;;;;;;5020681;28;20484;-62
2022/09/22 01:47:09;;;;;;;15.03;6.07;;;6.20;90.50;;;;;;5015504;28;20497;-62
2022/09/22 01:49:41;;;;;;;20.67;8.30;;;6.30;90.40;;;;;;5015416;28;20912;-64
2022/09/22 01:52:13;;;;;;;18.77;5.50;;;6.30;90.50;;;;;;5015387;28;20469;-62
2022/09/22 01:54:42;;;;;;;20.80;6.97;;;;;;;;;;5005579;28;20504;-63
2022/09/22 01:57:16;;;;;;;33.60;11.90;;;6.30;90.70;;;;;;5015902;28;20466;-64
2022/09/22 01:59:47;;;;;;;14.47;5.90;;;6.30;90.50;;;;;;5014577;28;20484;-64
2022/09/22 02:02:18;;;;;;;27.00;12.40;;;;;;;;;;4996424;28;20552;-63
2022/09/22 02:04:49;;;;;;;19.90;8.43;;;6.30;90.10;;;;;;5005213;28;20489;-64
2022/09/22 02:07:19;;;;;;;22.53;9.23;;;;;;;;;;5005506;28;20470;-63
2022/09/22 02:09:48;;;;;;;16.83;8.00;;;;;;;;;;5011368;28;20850;-64
2022/09/22 02:12:17;;;;;;;33.37;9.37;;;;;;;;;;5015999;28;20485;-62
2022/09/22 02:14:44;;;;;;;17.20;7.87;;;6.20;90.60;;;;;;5004365;28;20489;-62
2022/09/22 02:17:12;;;;;;;27.10;10.70;;;6.20;90.60;;;;;;5015493;28;20469;-63
2022/09/22 02:19:41;;;;;;;29.17;6.90;;;6.20;90.60;;;;;;5013528;28;20492;-63
2022/09/22 02:22:10;;;;;;;16.83;5.90;;;6.20;90.70;;;;;;5012301;28;20969;-63
2022/09/22 02:24:38;;;;;;;16.33;6.37;;;6.20;90.40;;;;;;5016359;28;20491;-63
2022/09/22 02:27:08;;;;;;;23.03;7.17;;;6.10;90.20;;;;;;5007122;28;20508;-63
2022/09/22 02:29:38;;;;;;;15.33;6.87;;;6.20;90.30;;;;;;5009575;28;20893;-63
2022/09/22 02:32:09;;;;;;;23.80;8.50;;;6.20;90.10;;;;;;5013103;28;20488;-63
2022/09/22 02:34:36;;;;;;;20.80;7.97;;;6.10;90.00;;;;;;5017683;28;21386;-62
2022/09/22 02:37:11;;;;;;;17.30;7.13;;;6.10;90.20;;;;;;5019376;28;20480;-63
2022/09/22 02:39:42;;;;;;;15.00;5.37;;;6.10;90.20;;;;;;5015127;28;20492;-63
2022/09/22 02:42:23;;;;;;;32.17;10.60;;;6.00;90.00;;;;;;5013882;28;21016;-64
2022/09/22 02:44:54;;;;;;;19.23;6.47;;;6.00;90.00;;;;;;5014160;28;20488;-62
2022/09/22 02:47:26;;;;;;;28.23;6.67;;;;;;;;;;5007830;28;20481;-63
2022/09/22 02:49:54;;;;;;;19.93;7.43;;;6.00;90.10;;;;;;5015951;28;20508;-63
2022/09/22 02:52:24;;;;;;;23.60;7.97;;;6.00;90.00;;;;;;5012595;28;20535;-63
2022/09/22 02:54:51;;;;;;;18.10;6.30;;;6.00;90.00;;;;;;5013480;28;20543;-63
2022/09/22 02:57:19;;;;;;;31.33;10.30;;;5.90;90.50;;;;;;5010454;28;21071;-62
2022/09/22 02:59:46;;;;;;;25.10;7.57;;;5.90;90.60;;;;;;5013348;28;20870;-63
2022/09/22 03:02:12;;;;;;;27.53;10.33;;;5.90;90.70;;;;;;5014491;28;21013;-61
2022/09/22 03:04:39;;;;;;;19.50;6.97;;;6.00;90.90;;;;;;5006632;28;20515;-63
2022/09/22 03:07:06;;;;;;;34.30;9.57;;;4.20;91.00;;;;;;5027121;28;20481;-63
2022/09/22 03:09:34;;;;;;;19.63;7.70;;;6.00;92.90;;;;;;5012886;28;20563;-62
2022/09/22 03:12:01;;;;;;;30.13;8.20;;;6.00;93.80;;;;;;5016073;28;20480;-61
2022/09/22 03:14:28;;;;;;;29.27;8.57;;;6.10;94.10;;;;;;5013219;28;20482;-61
2022/09/22 03:16:55;;;;;;;15.10;7.20;;;6.20;94.60;;;;;;5015304;28;20510;-62
2022/09/22 03:19:22;;;;;;;22.33;8.80;;;;;;;;;;5005778;28;20543;-61
2022/09/22 03:21:48;;;;;;;21.17;6.17;;;6.30;94.90;;;;;;5012670;28;20499;-61
2022/09/22 03:24:15;;;;;;;14.27;8.00;;;6.40;94.80;;;;;;5013343;28;20552;-61
2022/09/22 03:26:44;;;;;;;17.17;6.90;;;6.50;94.50;;;;;;5010910;28;20488;-61
2022/09/22 03:29:10;;;;;;;14.03;7.13;;;6.60;94.10;;;;;;5009927;28;20712;-62
2022/09/22 03:31:37;;;;;;;20.20;7.60;;;6.60;93.60;;;;;;5009164;28;20504;-61
2022/09/22 03:34:04;;;;;;;10.47;5.70;;;6.60;92.50;;;;;;5004751;28;20495;-61
2022/09/22 03:36:30;;;;;;;15.60;5.20;;;6.50;91.70;;;;;;5023855;28;20959;-61
2022/09/22 03:38:58;;;;;;;18.07;7.00;;;4.10;90.50;;;;;;5023391;28;20480;-62
2022/09/22 03:41:25;;;;;;;15.03;5.63;;;;;;;;;;5013957;28;20480;-61
2022/09/22 03:43:53;;;;;;;29.13;6.70;;;6.40;91.90;;;;;;5005818;28;20475;-61
2022/09/22 03:46:20;;;;;;;17.30;8.07;;;6.40;92.00;;;;;;5023940;28;20654;-62
2022/09/22 03:48:46;;;;;;;17.77;7.50;;;6.40;92.10;;;;;;5011721;28;20543;-62
2022/09/22 03:51:13;;;;;;;16.27;7.90;;;6.40;92.10;;;;;;5012505;28;20490;-61
2022/09/22 03:53:40;;;;;;;11.30;5.83;;;6.30;91.50;;;;;;5013525;28;20485;-61
2022/09/22 03:56:08;;;;;;;9.13;4.70;;;6.20;91.00;;;;;;5015987;28;20488;-61
2022/09/22 03:58:36;;;;;;;14.80;6.40;;;;;;;;;;5015264;28;21339;-62
2022/09/22 04:01:05;;;;;;;8.80;4.83;;;6.10;91.20;;;;;;5003012;28;20476;-63
2022/09/22 04:03:32;;;;;;;15.80;5.97;;;;;;;;;;5024895;28;20473;-62
2022/09/22 04:05:59;;;;;;;14.50;7.40;;;6.10;91.40;;;;;;5013884;28;20986;-64
2022/09/22 04:08:26;;;;;;;10.50;6.27;;;8.00;92.40;;;;;;5013508;28;20499;-63
2022/09/22 04:10:53;;;;;;;16.37;8.20;;;6.10;91.90;;;;;;5010383;28;21091;-64
2022/09/22 04:13:20;;;;;;;16.10;7.93;;;6.00;91.20;;;;;;5012429;28;20485;-62
2022/09/22 04:15:46;;;;;;;14.33;6.70;;;6.00;91.00;;;;;;5010193;28;20836;-62
2022/09/22 04:18:15;;;;;;;11.70;7.40;;;;;;;;;;5012364;28;20523;-63
2022/09/22 04:20:44;;;;;;;20.17;6.43;;;5.80;90.90;;;;;;5013371;28;20606;-62
2022/09/22 04:23:10;;;;;;;17.17;7.50;;;5.80;91.00;;;;;;5011913;28;20481;-63
2022/09/22 04:25:38;;;;;;;17.67;7.07;;;;;;;;;;5014015;28;20961;-63
2022/09/22 04:28:05;;;;;;;18.00;6.97;;;;;;;;;;5012952;28;21004;-64
2022/09/22 04:30:33;;;;;;;18.33;7.10;;;5.70;91.40;;;;;;5013787;28;20483;-61
2022/09/22 04:32:59;;;;;;;24.37;7.20;;;5.70;91.30;;;;;;5017152;28;20465;-62
2022/09/22 04:35:28;;;;;;;14.43;7.00;;;5.70;91.50;;;;;;5018214;28;20907;-62
2022/09/22 04:37:55;;;;;;;15.30;7.17;;;;;;;;;;5016771;28;20493;-62
2022/09/22 04:40:24;;;;;;;9.80;4.77;;;5.70;91.80;;;;;;5016968;28;20488;-64
2022/09/22 04:42:50;;;;;;;17.33;7.20;;;5.70;91.60;;;;;;5021092;28;20984;-62
2022/09/22 04:45:18;;;;;;;20.93;9.50;;;;;;;;;;5018934;28;20500;-62
2022/09/22 04:47:45;;;;;;;25.47;8.03;;;;;;;;;;5016827;28;20543;-62
2022/09/22 04:50:12;;;;;;;23.50;10.90;;;;;;;;;;5015841;28;20608;-62
2022/09/22 04:52:44;;;;;;;15.90;7.80;;;5.70;91.50;;;;;;5016980;28;20981;-62
2022/09/22 04:55:11;;;;;;;26.70;7.33;;;5.60;91.60;;;;;;5017082;28;20669;-61
2022/09/22 04:57:38;;;;;;;21.27;7.00;;;;;;;;;;5011561;28;20480;-63
2022/09/22 05:00:06;;;;;;;15.20;7.07;;;5.70;92.20;;;;;;5016808;28;20485;-63
2022/09/22 05:02:34;;;;;;;18.43;6.47;;;5.70;93.20;;;;;;5018431;28;20519;-62
2022/09/22 05:05:01;;;;;;;25.13;7.27;;;5.70;93.70;;;;;;5018047;28;20476;-62
2022/09/22 05:07:28;;;;;;;13.03;7.60;;;;;;;;;;5020344;28;20705;-63
2022/09/22 05:09:56;;;;;;;20.10;7.00;;;5.70;91.90;;;;;;5017462;28;20481;-62
2022/09/22 05:12:23;;;;;;;14.53;6.90;;;5.70;91.30;;;;;;5015645;28;20994;-60
2022/09/22 05:14:50;;;;;;;13.20;5.30;;;5.60;91.20;;;;;;5015066;28;20480;-64
2022/09/22 05:17:16;;;;;;;19.50;6.93;;;5.70;91.30;;;;;;5016649;28;20484;-62
2022/09/22 05:19:44;;;;;;;13.80;7.50;;;5.60;91.60;;;;;;5015832;28;20484;-62
2022/09/22 05:22:10;;;;;;;18.63;7.27;;;5.60;92.30;;;;;;5015946;28;20512;-61
2022/09/22 05:24:37;;;;;;;25.23;7.43;;;5.60;92.90;;;;;;5018640;28;21008;-63
2022/09/22 05:27:06;;;;;;;14.50;7.10;;;5.70;93.00;;;;;;5017969;28;20903;-62
2022/09/22 05:29:33;;;;;;;17.93;8.10;;;5.70;93.20;;;;;;5017283;28;20556;-63
2022/09/22 05:31:59;;;;;;;18.20;7.33;;;5.70;93.00;;;;;;5016357;28;20485;-61
2022/09/22 05:34:26;;;;;;;13.90;7.67;;;5.80;92.90;;;;;;5017105;28;20543;-62
2022/09/22 05:36:53;;;;;;;14.40;6.83;;;5.80;93.20;;;;;;5015119;28;20653;-61
2022/09/22 05:39:20;;;;;;;17.73;7.40;;;;;;;;;;5015572;28;20483;-62
2022/09/22 05:41:48;;;;;;;18.67;6.60;;;5.80;94.00;;;;;;5017551;28;20476;-62
2022/09/22 05:44:16;;;;;;;18.47;9.33;;;5.90;94.50;;;;;;5008397;28;20491;-62
2022/09/22 05:46:45;;;;;;;13.87;5.93;;;5.90;94.70;;;;;;5017214;28;20851;-62
2022/09/22 05:49:12;;;;;;;19.83;9.00;;;5.90;94.80;;;;;;5006822;28;20489;-62
2022/09/22 05:51:39;;;;;;;20.83;7.80;;;;;;;;;;5009332;28;20488;-62
2022/09/22 05:54:06;;;;;;;15.73;7.13;;;6.10;95.00;;;;;;5014044;28;20484;-62
2022/09/22 05:56:33;;;;;;;14.07;7.60;;;6.10;95.00;;;;;;5009774;28;20510;-63
2022/09/22 05:59:00;;;;;;;21.07;9.27;;;;;;;;;;5023857;28;20905;-63
2022/09/22 06:01:28;;;;;;;21.00;7.37;;;;;;;;;;5016103;28;20880;-62
2022/09/22 06:03:55;;;;;;;20.93;8.53;;;6.20;95.20;;;;;;5012045;28;21012;-62
2022/09/22 06:06:22;;;;;;;20.53;8.40;;;6.30;95.30;;;;;;5010839;28;20499;-62
2022/09/22 06:08:49;;;;;;;24.53;8.07;;;6.40;95.20;;;;;;5023478;28;21072;-62
2022/09/22 06:11:16;;;;;;;15.80;8.43;;;6.50;95.20;;;;;;5016341;28;21263;-62
2022/09/22 06:13:43;;;;;;;16.63;7.90;;;6.50;95.20;;;;;;5011804;28;21016;-62
2022/09/22 06:16:10;;;;;;;20.37;9.03;;;6.60;95.20;;;;;;5016338;28;20969;-63
2022/09/22 06:18:38;;;;;;;12.67;7.40;;;;;;;;;;5002455;28;21033;-62
2022/09/22 06:21:05;;;;;;;19.93;7.23;;;;;;;;;;5009497;28;20477;-62
2022/09/22 06:23:33;;;;;;;15.73;7.93;;;7.80;98.00;;;;;;5010411;28;20585;-63
2022/09/22 06:26:00;;;;;;;15.83;7.63;;;9.10;97.00;;;;;;5009864;28;20561;-64
2022/09/22 06:28:26;;;;;;;18.87;8.07;;;10.50;94.50;;;;;;5016151;28;20489;-64
2022/09/22 06:30:59;;;;;;;17.20;8.70;;;11.80;92.20;;;;;;5017082;28;20493;-63
2022/09/22 06:33:26;;;;;;;14.40;7.70;;;13.00;90.30;;;;;;5018993;28;20517;-61
2022/09/22 06:35:56;;;;;;;15.53;6.40;;;14.00;87.50;;;;;;5012514;28;20485;-64
2022/09/22 06:38:23;;;;;;;11.57;7.13;;;14.90;84.40;;;;;;5011816;28;20572;-62
2022/09/22 06:40:50;;;;;;;18.03;6.63;;;15.80;82.10;;;;;;5013476;28;20572;-61
2022/09/22 06:43:21;;;;;;;19.73;7.97;;;16.40;79.80;;;;;;5012406;28;21034;-63
2022/09/22 06:45:49;;;;;;;16.33;5.60;;;;;;;;;;5021492;28;20493;-63
2022/09/22 06:48:16;;;;;;;11.93;7.17;;;17.70;77.10;;;;;;5013587;28;20492;-62
2022/09/22 06:50:48;;;;;;;14.60;5.93;;;;;;;;;;5013018;28;20483;-63
2022/09/22 06:53:17;;;;;;;18.17;7.07;;;18.80;74.90;;;;;;5001693;28;20489;-63
2022/09/22 06:55:45;;;;;;;13.23;5.53;;;19.40;73.90;;;;;;5010135;28;20473;-63
2022/09/22 06:58:12;;;;;;;22.67;6.50;;;;;;;;;;5001240;28;20618;-62
2022/09/22 07:00:41;;;;;;;9.67;6.70;;;20.40;71.70;;;;;;5026260;28;21043;-63
2022/09/22 07:03:15;;;;;;;10.37;6.47;;;20.80;70.70;;;;;;5019067;28;20624;-62
2022/09/22 07:05:44;;;;;;;10.00;5.90;;;21.20;70.40;;;;;;5012108;28;20585;-63
2022/09/22 07:08:10;;;;;;;9.60;6.10;;;21.60;69.80;;;;;;5013567;28;20515;-62
2022/09/22 07:10:39;;;;;;;10.80;5.40;;;22.10;69.10;;;;;;5013449;28;20489;-63
2022/09/22 07:13:05;;;;;;;14.20;5.97;;;22.50;69.20;;;;;;5014674;28;20472;-62
2022/09/22 07:15:34;;;;;;;11.20;5.40;;;23.00;69.00;;;;;;5014478;28;20492;-63
2022/09/22 07:18:01;;;;;;;9.30;4.57;;;23.40;69.00;;;;;;5013138;28;20473;-62
2022/09/22 07:20:27;;;;;;;13.70;5.80;;;23.70;68.20;;;;;;5012490;28;20485;-63
2022/09/22 07:22:59;;;;;;;21.57;5.27;;;;;;;;;;5015663;28;20480;-62
2022/09/22 07:25:27;;;;;;;10.57;4.97;;;24.20;67.60;;;;;;5006992;28;20499;-63
2022/09/22 07:27:56;;;;;;;5.87;4.10;;;;;;;;;;5001702;28;20556;-63
2022/09/22 07:30:23;;;;;;;10.00;5.33;;;24.40;66.80;;;;;;5016448;28;20473;-63
2022/09/22 07:32:50;;;;;;;8.30;4.60;;;24.40;66.30;;;;;;5015683;28;20481;-62
2022/09/22 07:35:17;;;;;;;7.90;5.40;;;24.30;67.30;;;;;;5016788;28;20496;-63
2022/09/22 07:37:45;;;;;;;8.70;5.50;;;24.10;67.20;;;;;;5013624;28;20492;-63
2022/09/22 07:40:13;;;;;;;13.27;6.37;;;;;;;;;;5020259;28;20490;-62
2022/09/22 07:42:39;;;;;;;8.50;5.30;;;23.70;67.20;;;;;;5013945;28;20486;-62
2022/09/22 07:45:12;;;;;;;8.10;5.47;;;23.50;69.00;;;;;;5018569;28;20487;-62
2022/09/22 07:50:23;;;;;;;17.47;5.00;;;23.10;68.80;;;;;;5013113;28;20931;-63
2022/09/22 07:52:51;;;;;;;9.90;4.93;;;22.90;69.00;;;;;;5013936;28;20470;-63
2022/09/22 07:55:21;;;;;;;10.30;5.83;;;;;;;;;;5011904;28;20507;-62
2022/09/22 07:57:53;;;;;;;8.73;4.53;;;22.30;70.10;;;;;;5012443;28;20485;-65
2022/09/22 08:00:22;;;;;;;8.27;5.77;;;22.00;70.40;;;;;;5017837;28;20484;-63
2022/09/22 08:02:54;;;;;;;8.53;5.30;;;21.60;70.80;;;;;;5009360;28;20553;-63
2022/09/22 08:05:21;;;;;;;6.80;5.00;;;21.10;70.40;;;;;;5021765;28;21063;-62
2022/09/22 08:07:48;;;;;;;12.20;5.90;;;;;;;;;;5008513;28;20481;-62
2022/09/22 08:10:15;;;;;;;15.10;6.43;;;;;;;;;;5011727;28;21001;-62
2022/09/22 08:12:42;;;;;;;11.20;5.47;;;;;;;;;;5013759;28;20580;-62
2022/09/22 08:15:10;;;;;;;8.80;6.53;;;19.70;73.20;;;;;;5012901;28;21018;-62
2022/09/22 08:17:39;;;;;;;14.43;5.63;;;19.50;74.40;;;;;;5011063;28;20920;-61
2022/09/22 08:20:07;;;;;;;8.67;5.37;;;19.40;75.80;;;;;;5010901;28;20571;-62
2022/09/22 08:22:34;;;;;;;17.60;5.37;;;19.40;75.60;;;;;;5017214;28;20556;-61
2022/09/22 08:25:01;;;;;;;16.77;5.13;;;19.30;74.60;;;;;;5014272;28;20973;-62
2022/09/22 08:27:28;;;;;;;12.43;5.70;;;;;;;;;;5011194;28;20473;-62
2022/09/22 08:29:55;;;;;;;12.77;6.03;;;;;;;;;;5012295;28;20473;-61
2022/09/22 08:32:25;;;;;;;13.60;5.00;;;;;;;;;;5013372;28;20627;-61
2022/09/22 08:34:56;;;;;;;15.77;5.03;;;19.10;74.60;;;;;;5013930;28;20824;-62
2022/09/22 08:37:26;;;;;;;9.73;5.70;;;19.20;74.80;;;;;;5007836;28;21001;-63
2022/09/22 08:39:53;;;;;;;10.80;5.93;;;19.30;76.20;;;;;;5012308;28;20996;-63
2022/09/22 08:42:22;;;;;;;13.43;7.33;;;19.40;76.70;;;;;;5012880;28;21006;-62
2022/09/22 08:44:52;;;;;;;16.40;6.43;;;;;;;;;;5016845;28;20485;-62
2022/09/22 08:53:08;;;;;;;15.43;6.17;;;19.80;74.60;;;;;;5002102;28;20499;-62
2022/09/22 08:55:37;;;;;;;15.50;4.87;;;19.90;73.80;;;;;;5012680;28;21000;-62
2022/09/22 08:58:07;;;;;;;10.17;4.10;;;;;;;;;;5014588;28;20480;-63
2022/09/22 09:00:39;;;;;;;13.67;5.00;;;20.00;74.10;;;;;;5009256;28;20493;-63
2022/09/22 09:03:24;;;;;;;8.20;5.10;;;20.10;73.20;;;;;;5004389;28;21028;-62
2022/09/22 09:06:03;;;;;;;17.03;6.47;;;20.10;71.30;;;;;;5012677;28;20485;-63
2022/09/22 09:09:07;;;;;;;12.23;4.50;;;20.20;73.40;;;;;;5006172;28;20507;-63
2022/09/22 09:11:45;;;;;;;8.97;5.17;;;;;;;;;;5000384;28;20465;-63
2022/09/22 09:14:25;;;;;;;12.57;7.27;;;20.20;72.70;;;;;;5011078;28;21317;-62
2022/09/22 09:16:55;;;;;;;14.67;4.43;;;20.10;70.80;;;;;;5016489;28;20829;-63
2022/09/22 09:19:28;;;;;;;14.63;5.30;;;;;;;;;;5011274;28;20489;-63
2022/09/22 09:22:00;;;;;;;10.70;3.90;;;20.30;71.50;;;;;;5009857;28;20492;-62
2022/09/22 09:24:31;;;;;;;9.80;4.80;;;20.30;71.60;;;;;;5009398;28;20481;-63
2022/09/22 09:27:03;;;;;;;8.60;4.27;;;20.20;70.00;;;;;;5011001;28;20480;-63
2022/09/22 09:29:32;;;;;;;12.00;5.43;;;;;;;;;;5022744;28;20493;-62
2022/09/22 09:32:03;;;;;;;6.83;4.00;;;20.20;70.20;;;;;;5016409;28;20475;-62
2022/09/22 09:34:30;;;;;;;12.03;3.70;;;20.40;70.30;;;;;;5021916;28;20552;-62
2022/09/22 09:37:06;;;;;;;13.60;5.30;;;;;;;;;;5015202;28;20485;-63
2022/09/22 09:39:35;;;;;;;16.77;4.67;;;20.50;69.10;;;;;;5017634;28;20526;-62
2022/09/22 09:42:03;;;;;;;21.17;4.83;;;;;;;;;;5037835;28;20472;-63
2022/09/22 09:44:37;;;;;;;11.50;5.00;;;20.60;70.20;;;;;;5035214;28;20615;-62
2022/09/22 09:47:16;;;;;;;18.93;4.77;;;20.80;71.70;;;;;;5026919;28;20984;-62
2022/09/22 09:49:43;;;;;;;7.33;5.00;;;20.90;71.30;;;;;;5013530;28;20527;-62
2022/09/22 09:52:13;;;;;;;7.83;5.10;;;;;;;;;;5013755;28;20488;-62
2022/09/22 09:54:41;;;;;;;8.17;4.60;;;20.20;68.90;;;;;;5003273;28;20574;-62
2022/09/22 09:57:09;;;;;;;11.43;5.80;;;20.00;66.70;;;;;;5013200;28;20476;-63
2022/09/22 10:02:26;;;;;;;10.20;4.33;;;19.50;66.00;;;;;;5016023;28;20557;-62
2022/09/22 10:04:55;;;;;;;11.90;4.07;;;19.70;69.20;;;;;;5014808;28;20477;-62
2022/09/22 10:07:25;;;;;;;12.77;4.27;;;19.30;65.40;;;;;;5009493;28;20573;-62
2022/09/22 10:09:54;;;;;;;11.70;6.00;;;19.40;71.30;;;;;;5012151;28;20556;-63
2022/09/22 10:12:24;;;;;;;12.07;3.77;;;19.60;69.20;;;;;;5009732;28;21098;-63
2022/09/22 10:14:53;;;;;;;7.63;4.57;;;20.00;70.20;;;;;;5024965;28;20488;-62
2022/09/22 10:17:26;;;;;;;10.73;5.07;;;20.30;70.20;;;;;;5018733;28;21104;-63
2022/09/22 10:20:00;;;;;;;7.70;3.93;;;20.50;67.80;;;;;;5015524;28;20477;-62
2022/09/22 10:22:28;;;;;;;7.43;3.93;;;20.10;61.90;;;;;;5016121;28;20485;-64
2022/09/22 10:24:58;;;;;;;13.83;4.13;;;20.30;69.60;;;;;;5016011;28;20489;-63
2022/09/22 10:27:28;;;;;;;7.77;5.03;;;20.30;65.40;;;;;;5015868;28;20492;-64
2022/09/22 10:30:36;;;;;;;22.93;8.57;;;20.30;68.10;;;;;;5013980;28;20743;-64
2022/09/22 10:33:14;;;;;;;8.93;4.17;;;20.50;68.60;;;;;;4939603;28;20526;-62
2022/09/22 10:35:42;;;;;;;10.47;4.90;;;20.70;65.10;;;;;;4936917;28;20476;-62
2022/09/22 10:38:15;;;;;;;16.97;7.77;;;;;;;;;;4989671;28;20480;-62
2022/09/22 10:40:46;;;;;;;17.87;4.10;;;20.80;65.90;;;;;;5015567;28;20481;-62
2022/09/22 10:43:28;;;;;;;14.63;6.90;;;20.70;64.00;;;;;;5014704;28;20469;-62
2022/09/22 10:46:11;;;;;;;17.20;4.00;;;20.70;66.80;;;;;;5003023;28;20469;-62
2022/09/22 10:48:45;;;;;;;11.67;4.17;;;21.00;69.30;;;;;;5013308;28;20489;-61
2022/09/22 10:51:18;;;;;;;27.10;6.70;;;21.10;66.00;;;;;;5014812;28;20469;-62
2022/09/22 10:54:13;;;;;;;16.83;5.53;;;21.10;64.30;;;;;;5015088;28;21004;-62
2022/09/22 10:56:45;;;;;;;7.83;5.40;;;21.10;65.30;;;;;;5007759;28;20492;-62
2022/09/22 10:59:32;;;;;;;16.57;5.33;;;;;;;;;;5025057;28;20488;-62
2022/09/22 11:02:27;;;;;;;8.93;3.90;;;20.70;60.90;;;;;;4996516;28;20499;-61
2022/09/22 11:05:01;;;;;;;7.23;3.93;;;20.50;63.00;;;;;;5004991;28;20473;-62
2022/09/22 11:13:34;;;;;;;17.83;4.80;;;21.30;63.60;;;;;;5010446;28;20655;-63
2022/09/22 11:16:27;;;;;;;17.73;4.33;;;21.40;63.00;;;;;;4996500;28;20745;-63
2022/09/22 11:19:20;;;;;;;11.33;5.47;;;21.20;61.20;;;;;;5010954;28;20512;-62
2022/09/22 11:21:56;;;;;;;12.90;5.97;;;;;;;;;;5009828;28;20996;-63
2022/09/22 11:24:43;;;;;;;9.43;4.67;;;21.70;64.20;;;;;;4993222;28;21193;-62
2022/09/22 11:27:18;;;;;;;10.87;5.30;;;21.60;61.40;;;;;;5008961;28;20633;-62
2022/09/22 11:30:09;;;;;;;12.10;5.90;;;21.60;58.40;;;;;;5010749;28;20527;-62
2022/09/22 11:32:52;;;;;;;9.10;3.30;;;21.80;62.90;;;;;;5012274;28;20489;-62
2022/09/22 11:35:30;;;;;;;10.67;3.50;;;22.10;63.10;;;;;;5010955;28;21075;-62
2022/09/22 11:38:08;;;;;;;7.43;4.20;;;;;;;;;;5001418;28;21060;-62
2022/09/22 11:40:45;;;;;;;15.70;3.53;;;;;;;;;;5011776;28;20488;-62
2022/09/22 11:43:32;;;;;;;8.90;5.10;;;22.40;62.20;;;;;;5013846;28;21005;-63
2022/09/22 11:46:06;;;;;;;9.90;4.27;;;22.40;60.90;;;;;;4998703;28;20750;-63
2022/09/22 11:48:39;;;;;;;9.80;4.00;;;;;;;;;;5012209;28;21182;-63
2022/09/22 11:51:24;;;;;;;14.83;5.33;;;22.50;61.00;;;;;;5004333;28;21045;-63
2022/09/22 11:54:06;;;;;;;9.00;4.40;;;22.60;59.50;;;;;;5012371;28;21043;-63
2022/09/22 11:56:40;;;;;;;10.33;3.93;;;22.60;60.70;;;;;;5006704;28;20567;-62
2022/09/22 11:59:18;;;;;;;9.67;4.20;;;22.70;62.80;;;;;;5015015;28;20887;-61
2022/09/22 12:01:48;;;;;;;10.20;4.13;;;22.70;60.70;;;;;;5009119;28;20496;-62
2022/09/22 12:04:21;;;;;;;19.77;6.40;;;22.50;56.80;;;;;;5012371;28;20484;-62
2022/09/22 12:06:51;;;;;;;12.67;3.77;;;22.20;58.70;;;;;;5009414;28;20553;-62
2022/09/22 12:09:29;;;;;;;17.33;7.30;;;22.40;61.30;;;;;;5011247;28;20885;-63
2022/09/22 12:11:57;;;;;;;11.60;3.20;;;22.10;56.20;;;;;;5009680;28;20836;-63
2022/09/22 12:14:27;;;;;;;7.53;3.30;;;21.80;56.50;;;;;;5016684;28;21126;-62
2022/09/22 12:16:59;;;;;;;7.90;4.50;;;21.90;57.10;;;;;;5010565;28;20561;-62
2022/09/22 12:19:33;;;;;;;6.00;2.00;;;;;;;;;;5007527;28;20484;-63
2022/09/22 12:22:07;;;;;;;6.33;2.13;;;22.10;59.60;;;;;;4996880;28;20473;-63
2022/09/22 12:24:34;;;;;;;12.87;3.23;;;22.40;61.00;;;;;;5001295;28;20488;-63
2022/09/22 12:27:11;;;;;;;6.30;2.73;;;22.70;59.80;;;;;;5008897;28;20478;-62
2022/09/22 12:29:40;;;;;;;7.53;1.80;;;22.50;56.20;;;;;;5008962;28;20948;-62
2022/09/22 12:32:21;;;;;;;4.17;2.20;;;21.70;60.30;;;;;;5010865;28;20485;-63
2022/09/22 12:34:48;;;;;;;9.17;2.50;;;;;;;;;;5009331;28;20483;-63
2022/09/22 12:37:26;;;;;;;14.10;3.80;;;23.30;59.10;;;;;;5017120;28;21327;-63
2022/09/22 12:39:53;;;;;;;6.03;1.73;;;23.30;57.90;;;;;;5012255;28;20804;-63
2022/09/22 12:42:23;;;;;;;4.83;2.23;;;;;;;;;;5010570;28;20489;-63
2022/09/22 12:44:52;;;;;;;6.47;2.53;;;;;;;;;;5014035;28;20537;-62
2022/09/22 12:47:23;;;;;;;11.03;2.80;;;23.20;57.70;;;;;;5010587;28;20492;-63
2022/09/22 12:49:52;;;;;;;8.63;1.90;;;23.20;59.80;;;;;;5010440;28;20477;-63
2022/09/22 12:52:56;;;;;;;15.27;3.10;;;23.10;56.40;;;;;;5006685;28;20911;-63
2022/09/22 12:55:37;;;;;;;3.20;1.50;;;23.10;59.50;;;;;;5015370;28;20757;-63
2022/09/22 12:58:04;;;;;;;5.47;1.20;;;23.00;59.50;;;;;;5012483;28;20730;-63
2022/09/22 13:00:36;;;;;;;5.03;1.83;;;23.20;58.70;;;;;;5004976;28;20492;-63
2022/09/22 13:03:18;;;;;;;3.83;1.40;;;;;;;;;;5006195;28;20916;-62
2022/09/22 13:05:45;;;;;;;8.50;2.20;;;23.90;59.10;;;;;;5008964;28;20719;-63
2022/09/22 13:08:27;;;;;;;12.97;2.20;;;;;;;;;;5024262;28;20492;-63
2022/09/22 13:10:56;;;;;;;4.17;1.57;;;;;;;;;;5004755;28;20492;-63
2022/09/22 13:13:41;;;;;;;5.73;2.10;;;23.90;57.60;;;;;;5006875;28;20852;-63
2022/09/22 13:16:35;;;;;;;6.43;1.47;;;23.30;53.00;;;;;;5000322;28;20974;-63
2022/09/22 13:19:02;;;;;;;14.20;1.60;;;;;;;;;;5010551;28;20554;-63
2022/09/22 13:21:31;;;;;;;10.40;1.40;;;22.70;57.40;;;;;;5011225;28;20493;-63
2022/09/22 13:24:00;;;;;;;5.73;1.63;;;22.80;58.10;;;;;;5008008;28;20484;-63
2022/09/22 13:26:29;;;;;;;24.07;2.73;;;23.00;57.40;;;;;;5013862;28;20490;-63
2022/09/22 13:29:02;;;;;;;5.40;1.37;;;22.60;56.60;;;;;;5006413;28;20488;-63
2022/09/22 13:31:29;;;;;;;8.57;1.60;;;;;;;;;;5013719;28;20491;-63
2022/09/22 13:33:57;;;;;;;11.37;1.60;;;22.30;55.20;;;;;;5019753;28;20495;-63
2022/09/22 13:36:24;;;;;;;5.73;1.40;;;22.30;59.30;;;;;;5012049;28;20501;-63
2022/09/22 13:38:53;;;;;;;4.00;0.97;;;;;;;;;;5011653;28;20477;-63
2022/09/22 13:41:23;;;;;;;4.37;1.30;;;22.70;59.50;;;;;;5005378;28;20489;-63